Flight Number: EUR3006 Duration: 11:00
Departure: Frankfurt Airport (EDDF) at 08:00 Distance: 5335 Nm
Arrival: Vancouver Airport (CYVR) at 19:00 Equipment: B747

Weather Information
Frankfurt / M-Flughafen, Germany (EDDF) 50-03N 008-36E 113M May 20, 2018 - 09:20 AM EDT / 2018.05.20 1320 UTC
Wind: from the SSE (160 degrees) at 9 MPH (8 KT) (direction variable):0
Visibility: greater than 7 mile(s):0
Sky conditions: mostly cloudy Weather: showers in the vicinity; Cumulonimbus clouds observed Temperature: 68 F (20 C) Dew Point: 51 F (11 C) Relative Humidity: 56% Pressure (altimeter): 30.12 in. Hg (1020 hPa)
ob: EDDF 201320Z 16008KT 120V190 9999 VCSH FEW033 SCT045CB BKN100 20/11 Q1020 TEMPO SHRA cycle: 13
Sunrise: 03:36 Sunset: 19:08 (UTC)

Vancouver International Air-Port, B. C., Canada (CYVR) 49-11N 123-10W 2M May 20, 2018 - 09:00 AM EDT / 2018.05.20 1300 UTC
Wind: from the E (100 degrees) at 9 MPH (8 KT):0
Visibility: 15 mile(s):0
Sky conditions: overcast Temperature: 55 F (13 C) Dew Point: 51 F (11 C) Relative Humidity: 87% Pressure (altimeter): 29.95 in. Hg (1014 hPa)
ob: CYVR 201300Z 10008KT 15SM FEW035 BKN071 OVC095 13/11 A2995 RMK SC1AC6AC1 SLP145 cycle: 13
Sunrise: 12:26 Sunset: 03:52 (UTC)

TAF: 404 Not Found

Not Found

The requested URL /data/forecasts/taf/stations/CYVR.TXT was not found on this server.



Previous Pireps for this route
Date Aircraft Flight time Fuel used Landing rate On time
2013-06-03A330-20011.03141838-338Charter
2013-07-08B77711.00179441-261Charter
2016-12-29B74711.032045590Yes
(pireps marked green are flown by you)

Route map